sensor_id;sensor_type;location;lat;lon;timestamp;pressure;altitude;pressure_sealevel;temperature;humidity
32298;BME280;18782;48.984;8.548;2023-01-28T00:01:28;100685.31;;;2.18;83.77
32298;BME280;18782;48.984;8.548;2023-01-28T00:03:56;100685.09;;;2.15;83.83
32298;BME280;18782;48.984;8.548;2023-01-28T00:06:24;100690.19;;;2.15;83.31
32298;BME280;18782;48.984;8.548;2023-01-28T00:08:51;100698.59;;;2.14;83.82
32298;BME280;18782;48.984;8.548;2023-01-28T00:11:22;100695.91;;;2.13;83.65
32298;BME280;18782;48.984;8.548;2023-01-28T00:13:50;100697.56;;;2.12;83.42
32298;BME280;18782;48.984;8.548;2023-01-28T00:16:18;100693.28;;;2.11;81.15
32298;BME280;18782;48.984;8.548;2023-01-28T00:18:48;100698.34;;;2.11;81.62
32298;BME280;18782;48.984;8.548;2023-01-28T00:21:15;100693.28;;;2.11;82.08
32298;BME280;18782;48.984;8.548;2023-01-28T00:23:47;100698.78;;;2.17;80.58
32298;BME280;18782;48.984;8.548;2023-01-28T00:26:16;100700.34;;;2.15;79.16
32298;BME280;18782;48.984;8.548;2023-01-28T00:28:46;100696.06;;;2.14;79.79
32298;BME280;18782;48.984;8.548;2023-01-28T00:31:16;100697.69;;;2.14;79.04
32298;BME280;18782;48.984;8.548;2023-01-28T00:33:44;100699.34;;;2.13;79.36
32298;BME280;18782;48.984;8.548;2023-01-28T00:36:13;100700.22;;;2.14;79.37
32298;BME280;18782;48.984;8.548;2023-01-28T00:38:41;100693.38;;;2.13;79.11
32298;BME280;18782;48.984;8.548;2023-01-28T00:41:13;100696.78;;;2.13;79.12
32298;BME280;18782;48.984;8.548;2023-01-28T00:43:42;100686.09;;;2.17;78.39
32298;BME280;18782;48.984;8.548;2023-01-28T00:46:12;100697.03;;;2.16;78.81
32298;BME280;18782;48.984;8.548;2023-01-28T00:48:41;100693.69;;;2.17;78.83
32298;BME280;18782;48.984;8.548;2023-01-28T00:51:11;100693.69;;;2.17;79.40
32298;BME280;18782;48.984;8.548;2023-01-28T00:53:40;100687.84;;;2.18;79.32
32298;BME280;18782;48.984;8.548;2023-01-28T00:56:10;100687.97;;;2.20;79.22
32298;BME280;18782;48.984;8.548;2023-01-28T00:58:38;100692.38;;;2.22;78.01
32298;BME280;18782;48.984;8.548;2023-01-28T01:01:08;100679.66;;;2.22;78.35
32298;BME280;18782;48.984;8.548;2023-01-28T01:03:37;100683.00;;;2.21;78.52
32298;BME280;18782;48.984;8.548;2023-01-28T01:06:06;100682.09;;;2.21;78.51
32298;BME280;18782;48.984;8.548;2023-01-28T01:08:34;100688.84;;;2.20;79.21
32298;BME280;18782;48.984;8.548;2023-01-28T01:11:06;100688.63;;;2.17;79.10
32298;BME280;18782;48.984;8.548;2023-01-28T01:13:34;100689.50;;;2.18;79.00
32298;BME280;18782;48.984;8.548;2023-01-28T01:16:03;100695.69;;;2.21;78.59
32298;BME280;18782;48.984;8.548;2023-01-28T01:18:31;100702.28;;;2.19;78.22
32298;BME280;18782;48.984;8.548;2023-01-28T01:21:01;100701.41;;;2.19;77.96
32298;BME280;18782;48.984;8.548;2023-01-28T01:23:29;100694.59;;;2.18;78.32
32298;BME280;18782;48.984;8.548;2023-01-28T01:25:57;100695.47;;;2.18;77.86
32298;BME280;18782;48.984;8.548;2023-01-28T01:28:25;100702.09;;;2.16;77.78
32298;BME280;18782;48.984;8.548;2023-01-28T01:30:58;100703.66;;;2.14;78.30
32298;BME280;18782;48.984;8.548;2023-01-28T01:33:27;100699.47;;;2.15;78.67
32298;BME280;18782;48.984;8.548;2023-01-28T01:35:55;100699.56;;;2.16;78.65
32298;BME280;18782;48.984;8.548;2023-01-28T01:38:26;100694.69;;;2.19;78.36
32298;BME280;18782;48.984;8.548;2023-01-28T01:40:56;100701.31;;;2.17;78.75
32298;BME280;18782;48.984;8.548;2023-01-28T01:43:48;100690.19;;;2.15;79.11
32298;BME280;18782;48.984;8.548;2023-01-28T01:46:18;100695.47;;;2.18;79.32
32298;BME280;18782;48.984;8.548;2023-01-28T01:48:47;100693.47;;;2.26;80.47
32298;BME280;18782;48.984;8.548;2023-01-28T01:51:17;100685.06;;;2.27;81.46
32298;BME280;18782;48.984;8.548;2023-01-28T01:53:51;100687.50;;;2.25;81.73
32298;BME280;18782;48.984;8.548;2023-01-28T01:56:22;100679.09;;;2.26;81.76
32298;BME280;18782;48.984;8.548;2023-01-28T01:58:54;100683.41;;;2.27;81.24
32298;BME280;18782;48.984;8.548;2023-01-28T02:01:26;100687.69;;;2.28;81.76
32298;BME280;18782;48.984;8.548;2023-01-28T02:04:00;100692.91;;;2.30;82.14
32298;BME280;18782;48.984;8.548;2023-01-28T02:06:30;100691.03;;;2.27;81.93
32298;BME280;18782;48.984;8.548;2023-01-28T02:08:59;100690.78;;;2.24;82.55
32298;BME280;18782;48.984;8.548;2023-01-28T02:11:31;100694.81;;;2.21;82.83
32298;BME280;18782;48.984;8.548;2023-01-28T02:14:01;100685.31;;;2.18;83.00
32298;BME280;18782;48.984;8.548;2023-01-28T02:16:31;100687.84;;;2.18;82.79
32298;BME280;18782;48.984;8.548;2023-01-28T02:18:59;100684.41;;;2.18;82.88
32298;BME280;18782;48.984;8.548;2023-01-28T02:21:49;100693.06;;;2.20;83.00
32298;BME280;18782;48.984;8.548;2023-01-28T02:27:32;100690.69;;;2.23;83.40
32298;BME280;18782;48.984;8.548;2023-01-28T02:30:06;100685.53;;;2.21;83.53
32298;BME280;18782;48.984;8.548;2023-01-28T02:32:42;100694.81;;;2.21;83.92
32298;BME280;18782;48.984;8.548;2023-01-28T02:35:14;100707.59;;;2.22;83.59
32298;BME280;18782;48.984;8.548;2023-01-28T02:37:49;100699.00;;;2.20;83.63
32298;BME280;18782;48.984;8.548;2023-01-28T02:40:23;100705.84;;;2.21;83.86
32298;BME280;18782;48.984;8.548;2023-01-28T02:42:52;100701.88;;;2.25;83.44
32298;BME280;18782;48.984;8.548;2023-01-28T02:45:24;100705.16;;;2.24;83.48
32298;BME280;18782;48.984;8.548;2023-01-28T02:48:13;100704.50;;;2.26;83.05
32298;BME280;18782;48.984;8.548;2023-01-28T02:50:47;100701.97;;;2.26;82.81
32298;BME280;18782;48.984;8.548;2023-01-28T02:53:24;100708.72;;;2.26;82.85
32298;BME280;18782;48.984;8.548;2023-01-28T02:56:18;100709.38;;;2.23;82.49
32298;BME280;18782;48.984;8.548;2023-01-28T02:59:00;100721.09;;;2.21;82.51
32298;BME280;18782;48.984;8.548;2023-01-28T03:01:55;100714.25;;;2.20;83.06
32298;BME280;18782;48.984;8.548;2023-01-28T03:04:28;100714.34;;;2.22;83.26
32298;BME280;18782;48.984;8.548;2023-01-28T03:06:59;100710.94;;;2.21;83.06
32298;BME280;18782;48.984;8.548;2023-01-28T03:09:32;100703.09;;;2.18;83.07
32298;BME280;18782;48.984;8.548;2023-01-28T03:12:05;100705.44;;;2.15;83.63
32298;BME280;18782;48.984;8.548;2023-01-28T03:14:55;100708.94;;;2.17;83.98
32298;BME280;18782;48.984;8.548;2023-01-28T03:17:46;100711.13;;;2.24;83.63
32298;BME280;18782;48.984;8.548;2023-01-28T03:20:36;100701.66;;;2.22;83.32
32298;BME280;18782;48.984;8.548;2023-01-28T03:23:28;100710.94;;;2.21;83.52
32298;BME280;18782;48.984;8.548;2023-01-28T03:26:20;100714.25;;;2.20;83.18
32298;BME280;18782;48.984;8.548;2023-01-28T03:29:09;100707.19;;;2.16;82.99
32298;BME280;18782;48.984;8.548;2023-01-28T03:31:59;100715.59;;;2.15;83.21
32298;BME280;18782;48.984;8.548;2023-01-28T03:34:46;100713.25;;;2.18;84.20
32298;BME280;18782;48.984;8.548;2023-01-28T03:37:33;100714.03;;;2.17;84.43
32298;BME280;18782;48.984;8.548;2023-01-28T03:40:09;100711.84;;;2.10;84.39
32298;BME280;18782;48.984;8.548;2023-01-28T03:42:37;100715.34;;;2.12;84.60
32298;BME280;18782;48.984;8.548;2023-01-28T03:45:31;100724.19;;;2.17;84.41
32298;BME280;18782;48.984;8.548;2023-01-28T03:48:02;100729.16;;;2.16;84.72
32298;BME280;18782;48.984;8.548;2023-01-28T03:50:32;100718.69;;;2.11;84.40
32298;BME280;18782;48.984;8.548;2023-01-28T03:53:01;100718.69;;;2.11;84.68
32298;BME280;18782;48.984;8.548;2023-01-28T03:55:45;100720.00;;;2.06;84.63
32298;BME280;18782;48.984;8.548;2023-01-28T03:58:13;100726.66;;;2.04;84.80
32298;BME280;18782;48.984;8.548;2023-01-28T04:00:43;100724.13;;;2.04;85.67
32298;BME280;18782;48.984;8.548;2023-01-28T04:03:13;100723.53;;;2.08;85.88
32298;BME280;18782;48.984;8.548;2023-01-28T04:06:13;100725.50;;;2.12;85.67
32298;BME280;18782;48.984;8.548;2023-01-28T04:08:51;100727.06;;;2.10;84.73
32298;BME280;18782;48.984;8.548;2023-01-28T04:11:31;100728.59;;;2.08;85.06
32298;BME280;18782;48.984;8.548;2023-01-28T04:14:01;100732.81;;;2.07;85.28
32298;BME280;18782;48.984;8.548;2023-01-28T04:16:58;100729.75;;;2.00;85.27
32298;BME280;18782;48.984;8.548;2023-01-28T04:19:26;100729.75;;;2.00;85.55
32298;BME280;18782;48.984;8.548;2023-01-28T04:21:56;100736.34;;;1.98;85.98
32298;BME280;18782;48.984;8.548;2023-01-28T04:24:24;100733.06;;;1.99;85.92
32298;BME280;18782;48.984;8.548;2023-01-28T04:26:52;100742.63;;;2.03;85.68
32298;BME280;18782;48.984;8.548;2023-01-28T04:29:23;100749.59;;;2.05;85.71
32298;BME280;18782;48.984;8.548;2023-01-28T04:31:53;100738.75;;;2.08;86.42
32298;BME280;18782;48.984;8.548;2023-01-28T04:34:38;100740.56;;;2.09;85.82
32298;BME280;18782;48.984;8.548;2023-01-28T04:37:32;100746.06;;;2.15;85.86
32298;BME280;18782;48.984;8.548;2023-01-28T04:40:09;100749.56;;;2.17;86.47
32298;BME280;18782;48.984;8.548;2023-01-28T04:42:40;100746.94;;;2.16;86.27
32298;BME280;18782;48.984;8.548;2023-01-28T04:45:24;100743.72;;;2.18;86.30
32298;BME280;18782;48.984;8.548;2023-01-28T04:48:10;100743.94;;;2.21;85.81
32298;BME280;18782;48.984;8.548;2023-01-28T04:50:50;100745.47;;;2.19;86.70
32298;BME280;18782;48.984;8.548;2023-01-28T04:53:32;100746.25;;;2.18;86.29
32298;BME280;18782;48.984;8.548;2023-01-28T04:56:06;100753.09;;;2.19;86.52
32298;BME280;18782;48.984;8.548;2023-01-28T04:58:35;100744.72;;;2.20;86.79
32298;BME280;18782;48.984;8.548;2023-01-28T05:01:07;100753.31;;;2.22;86.43
32298;BME280;18782;48.984;8.548;2023-01-28T05:03:35;100752.53;;;2.23;85.53
32298;BME280;18782;48.984;8.548;2023-01-28T05:06:04;100754.88;;;2.20;85.11
32298;BME280;18782;48.984;8.548;2023-01-28T05:08:39;100764.81;;;2.17;85.60
32298;BME280;18782;48.984;8.548;2023-01-28T05:11:07;100756.41;;;2.18;84.99
32298;BME280;18782;48.984;8.548;2023-01-28T05:13:34;100763.06;;;2.16;85.51
32298;BME280;18782;48.984;8.548;2023-01-28T05:16:03;100760.28;;;2.13;86.13
32298;BME280;18782;48.984;8.548;2023-01-28T05:18:31;100766.38;;;2.15;86.31
32298;BME280;18782;48.984;8.548;2023-01-28T05:21:14;100770.34;;;2.12;86.43
32298;BME280;18782;48.984;8.548;2023-01-28T05:23:43;100771.78;;;2.08;87.17
32298;BME280;18782;48.984;8.548;2023-01-28T05:26:11;100775.09;;;2.07;87.67
32298;BME280;18782;48.984;8.548;2023-01-28T05:28:39;100770.03;;;2.07;88.43
32298;BME280;18782;48.984;8.548;2023-01-28T05:31:08;100778.66;;;2.09;89.71
32298;BME280;18782;48.984;8.548;2023-01-28T05:33:36;100777.09;;;2.11;90.32
32298;BME280;18782;48.984;8.548;2023-01-28T05:36:07;100779.84;;;2.14;91.11
32298;BME280;18782;48.984;8.548;2023-01-28T05:38:36;100778.31;;;2.16;91.43
32298;BME280;18782;48.984;8.548;2023-01-28T05:41:05;100780.94;;;2.18;92.05
32298;BME280;18782;48.984;8.548;2023-01-28T05:43:34;100774.78;;;2.14;92.36
32298;BME280;18782;48.984;8.548;2023-01-28T05:46:25;100785.91;;;2.16;92.04
32298;BME280;18782;48.984;8.548;2023-01-28T05:49:13;100782.50;;;2.16;92.95
32298;BME280;18782;48.984;8.548;2023-01-28T05:51:54;100786.91;;;2.18;93.20
32298;BME280;18782;48.984;8.548;2023-01-28T05:54:21;100788.22;;;2.13;93.71
32298;BME280;18782;48.984;8.548;2023-01-28T05:56:50;100788.22;;;2.13;93.59
32298;BME280;18782;48.984;8.548;2023-01-28T05:59:18;100795.28;;;2.17;93.41
32298;BME280;18782;48.984;8.548;2023-01-28T06:01:48;100795.41;;;2.19;93.73
32298;BME280;18782;48.984;8.548;2023-01-28T06:04:16;100796.88;;;2.15;93.43
32298;BME280;18782;48.984;8.548;2023-01-28T06:06:44;100812.09;;;2.15;93.98
32298;BME280;18782;48.984;8.548;2023-01-28T06:09:12;100806.78;;;2.12;94.05
32298;BME280;18782;48.984;8.548;2023-01-28T06:11:39;100816.94;;;2.12;95.09
32298;BME280;18782;48.984;8.548;2023-01-28T06:14:08;100818.69;;;2.13;94.77
32298;BME280;18782;48.984;8.548;2023-01-28T06:16:55;100816.50;;;2.18;95.14
32298;BME280;18782;48.984;8.548;2023-01-28T06:19:34;100818.94;;;2.16;95.35
32298;BME280;18782;48.984;8.548;2023-01-28T06:22:02;100817.97;;;2.14;95.51
32298;BME280;18782;48.984;8.548;2023-01-28T06:24:31;100823.34;;;2.19;95.51
32298;BME280;18782;48.984;8.548;2023-01-28T06:26:59;100828.75;;;2.35;100.00
32298;BME280;18782;48.984;8.548;2023-01-28T06:29:27;100840.47;;;2.33;98.42
32298;BME280;18782;48.984;8.548;2023-01-28T06:31:55;100838.78;;;2.33;95.67
32298;BME280;18782;48.984;8.548;2023-01-28T06:34:23;100836.81;;;2.29;95.61
32298;BME280;18782;48.984;8.548;2023-01-28T06:36:51;100846.97;;;2.29;95.24
32298;BME280;18782;48.984;8.548;2023-01-28T06:39:19;100843.78;;;2.20;95.42
32298;BME280;18782;48.984;8.548;2023-01-28T06:41:48;100850.53;;;2.20;96.19
32298;BME280;18782;48.984;8.548;2023-01-28T06:44:16;100845.00;;;2.25;95.40
32298;BME280;18782;48.984;8.548;2023-01-28T06:46:45;100849.41;;;2.16;94.92
32298;BME280;18782;48.984;8.548;2023-01-28T06:49:12;100851.06;;;2.16;96.27
32298;BME280;18782;48.984;8.548;2023-01-28T06:51:40;100857.38;;;2.09;96.10
32298;BME280;18782;48.984;8.548;2023-01-28T06:54:08;100853.63;;;2.04;96.63
32298;BME280;18782;48.984;8.548;2023-01-28T06:56:36;100853.19;;;2.09;96.03
32298;BME280;18782;48.984;8.548;2023-01-28T06:59:03;100862.66;;;2.12;96.12
32298;BME280;18782;48.984;8.548;2023-01-28T07:01:31;100856.03;;;2.02;96.32
32298;BME280;18782;48.984;8.548;2023-01-28T07:04:00;100857.38;;;2.09;95.98
32298;BME280;18782;48.984;8.548;2023-01-28T07:06:28;100862.75;;;2.02;96.06
32298;BME280;18782;48.984;8.548;2023-01-28T07:08:56;100856.91;;;2.03;96.65
32298;BME280;18782;48.984;8.548;2023-01-28T07:11:23;100868.63;;;2.01;96.67
32298;BME280;18782;48.984;8.548;2023-01-28T07:13:51;100872.91;;;2.02;97.13
32298;BME280;18782;48.984;8.548;2023-01-28T07:16:19;100874.47;;;2.00;97.29
32298;BME280;18782;48.984;8.548;2023-01-28T07:18:46;100875.25;;;1.99;97.54
32298;BME280;18782;48.984;8.548;2023-01-28T07:21:15;100873.47;;;1.98;97.07
32298;BME280;18782;48.984;8.548;2023-01-28T07:23:43;100880.34;;;1.99;97.59
32298;BME280;18782;48.984;8.548;2023-01-28T07:26:11;100871.94;;;2.00;97.56
32298;BME280;18782;48.984;8.548;2023-01-28T07:28:38;100871.16;;;2.01;97.54
32298;BME280;18782;48.984;8.548;2023-01-28T07:31:06;100873.94;;;2.04;97.93
32298;BME280;18782;48.984;8.548;2023-01-28T07:33:34;100877.47;;;2.06;97.58
32298;BME280;18782;48.984;8.548;2023-01-28T07:36:01;100873.50;;;2.09;97.55
32298;BME280;18782;48.984;8.548;2023-01-28T07:38:32;100883.09;;;2.14;97.62
32298;BME280;18782;48.984;8.548;2023-01-28T07:41:00;100877.44;;;2.29;99.10
32298;BME280;18782;48.984;8.548;2023-01-28T07:43:28;100878.13;;;2.39;99.09
32298;BME280;18782;48.984;8.548;2023-01-28T07:45:58;100882.97;;;2.59;99.43
32298;BME280;18782;48.984;8.548;2023-01-28T07:48:26;100887.81;;;2.79;96.17
32298;BME280;18782;48.984;8.548;2023-01-28T07:50:57;100888.34;;;2.75;95.38
32298;BME280;18782;48.984;8.548;2023-01-28T07:53:25;100892.03;;;2.67;94.99
32298;BME280;18782;48.984;8.548;2023-01-28T07:55:58;100893.38;;;2.62;95.28
32298;BME280;18782;48.984;8.548;2023-01-28T07:58:26;100895.69;;;2.59;94.45
32298;BME280;18782;48.984;8.548;2023-01-28T08:00:55;100904.00;;;2.56;95.47
32298;BME280;18782;48.984;8.548;2023-01-28T08:03:24;100896.56;;;2.48;95.01
32298;BME280;18782;48.984;8.548;2023-01-28T08:05:53;100897.97;;;2.79;100.00
32298;BME280;18782;48.984;8.548;2023-01-28T08:08:23;100902.25;;;3.29;100.00
32298;BME280;18782;48.984;8.548;2023-01-28T08:10:50;100892.47;;;3.47;100.00
32298;BME280;18782;48.984;8.548;2023-01-28T08:13:20;100896.84;;;3.49;99.98
32298;BME280;18782;48.984;8.548;2023-01-28T08:15:47;100907.41;;;3.42;98.17
32298;BME280;18782;48.984;8.548;2023-01-28T08:18:15;100919.00;;;3.25;93.67
32298;BME280;18782;48.984;8.548;2023-01-28T08:20:43;100918.91;;;3.12;93.61
32298;BME280;18782;48.984;8.548;2023-01-28T08:23:14;100914.97;;;3.04;93.76
32298;BME280;18782;48.984;8.548;2023-01-28T08:25:41;100915.75;;;3.03;93.63
32298;BME280;18782;48.984;8.548;2023-01-28T08:28:10;100916.50;;;3.02;93.82
32298;BME280;18782;48.984;8.548;2023-01-28T08:30:39;100916.50;;;3.02;94.17
32298;BME280;18782;48.984;8.548;2023-01-28T08:33:08;100919.41;;;2.95;93.29
32298;BME280;18782;48.984;8.548;2023-01-28T08:35:36;100918.09;;;2.88;93.87
32298;BME280;18782;48.984;8.548;2023-01-28T08:38:06;100922.06;;;2.84;93.52
32298;BME280;18782;48.984;8.548;2023-01-28T08:40:34;100918.09;;;2.88;93.65
32298;BME280;18782;48.984;8.548;2023-01-28T08:43:02;100920.84;;;2.79;93.12
32298;BME280;18782;48.984;8.548;2023-01-28T08:45:30;100927.50;;;2.77;93.67
32298;BME280;18782;48.984;8.548;2023-01-28T08:48:01;100925.84;;;2.78;94.55
32298;BME280;18782;48.984;8.548;2023-01-28T08:50:31;100932.00;;;2.81;94.52
32298;BME280;18782;48.984;8.548;2023-01-28T08:53:00;100927.69;;;2.80;93.88
32298;BME280;18782;48.984;8.548;2023-01-28T08:55:29;100925.94;;;2.79;94.16
32298;BME280;18782;48.984;8.548;2023-01-28T08:58:01;100927.16;;;2.84;94.78
32298;BME280;18782;48.984;8.548;2023-01-28T09:00:32;100925.81;;;2.90;94.45
32298;BME280;18782;48.984;8.548;2023-01-28T09:03:01;100923.50;;;2.93;94.70
32298;BME280;18782;48.984;8.548;2023-01-28T09:05:32;100935.44;;;2.94;93.78
32298;BME280;18782;48.984;8.548;2023-01-28T09:08:00;100936.22;;;2.93;93.89
32298;BME280;18782;48.984;8.548;2023-01-28T09:10:28;100935.44;;;2.94;93.45
32298;BME280;18782;48.984;8.548;2023-01-28T09:12:56;100932.66;;;2.91;92.63
32298;BME280;18782;48.984;8.548;2023-01-28T09:15:23;100929.16;;;2.88;93.82
32298;BME280;18782;48.984;8.548;2023-01-28T09:17:56;100934.44;;;2.92;94.17
32298;BME280;18782;48.984;8.548;2023-01-28T09:20:25;100935.09;;;3.01;92.93
32298;BME280;18782;48.984;8.548;2023-01-28T09:22:52;100947.25;;;3.05;92.39
32298;BME280;18782;48.984;8.548;2023-01-28T09:25:20;100936.84;;;3.13;94.27
32298;BME280;18782;48.984;8.548;2023-01-28T09:27:48;100947.13;;;3.15;93.44
32298;BME280;18782;48.984;8.548;2023-01-28T09:30:16;100951.97;;;3.12;92.71
32298;BME280;18782;48.984;8.548;2023-01-28T09:32:44;100951.19;;;3.13;93.27
32298;BME280;18782;48.984;8.548;2023-01-28T09:35:11;100954.53;;;3.12;92.42
32298;BME280;18782;48.984;8.548;2023-01-28T09:37:43;100951.88;;;3.10;92.50
32298;BME280;18782;48.984;8.548;2023-01-28T09:40:14;100957.63;;;3.20;93.79
32298;BME280;18782;48.984;8.548;2023-01-28T09:42:58;100960.84;;;3.42;96.10
32298;BME280;18782;48.984;8.548;2023-01-28T09:45:34;100961.22;;;3.60;93.96
32298;BME280;18782;48.984;8.548;2023-01-28T09:48:04;100958.75;;;3.73;92.57
32298;BME280;18782;48.984;8.548;2023-01-28T09:50:35;100963.22;;;3.64;92.70
32298;BME280;18782;48.984;8.548;2023-01-28T09:53:06;100968.72;;;3.70;91.77
32298;BME280;18782;48.984;8.548;2023-01-28T09:55:38;100974.50;;;3.67;90.97
32298;BME280;18782;48.984;8.548;2023-01-28T09:58:10;100969.41;;;3.67;91.58
32298;BME280;18782;48.984;8.548;2023-01-28T10:00:42;100966.84;;;3.67;91.06
32298;BME280;18782;48.984;8.548;2023-01-28T10:03:26;100971.63;;;3.63;90.38
32298;BME280;18782;48.984;8.548;2023-01-28T10:06:03;100974.19;;;3.63;90.38
32298;BME280;18782;48.984;8.548;2023-01-28T10:08:54;100963.91;;;3.61;90.18
32298;BME280;18782;48.984;8.548;2023-01-28T10:11:39;100966.75;;;3.66;89.74
32298;BME280;18782;48.984;8.548;2023-01-28T10:14:12;100969.59;;;3.71;89.65
32298;BME280;18782;48.984;8.548;2023-01-28T10:16:49;100964.16;;;3.78;89.77
32298;BME280;18782;48.984;8.548;2023-01-28T10:19:21;100965.66;;;3.87;89.38
32298;BME280;18782;48.984;8.548;2023-01-28T10:21:53;100961.34;;;3.86;90.63
32298;BME280;18782;48.984;8.548;2023-01-28T10:24:27;100957.94;;;4.64;100.00
32298;BME280;18782;48.984;8.548;2023-01-28T10:26:56;100953.19;;;5.10;100.00
32298;BME280;18782;48.984;8.548;2023-01-28T10:29:26;100948.50;;;4.89;92.59
32298;BME280;18782;48.984;8.548;2023-01-28T10:31:59;100958.34;;;4.70;90.24
32298;BME280;18782;48.984;8.548;2023-01-28T10:34:30;100958.94;;;4.66;87.65
32298;BME280;18782;48.984;8.548;2023-01-28T10:36:58;100956.66;;;4.57;88.47
32298;BME280;18782;48.984;8.548;2023-01-28T10:39:27;100955.97;;;4.47;88.10
32298;BME280;18782;48.984;8.548;2023-01-28T10:41:55;100955.66;;;4.42;88.80
32298;BME280;18782;48.984;8.548;2023-01-28T10:44:30;100955.50;;;4.39;87.55
32298;BME280;18782;48.984;8.548;2023-01-28T10:47:01;100953.53;;;4.35;88.35
32298;BME280;18782;48.984;8.548;2023-01-28T10:49:31;100964.69;;;4.24;88.59
32298;BME280;18782;48.984;8.548;2023-01-28T10:52:10;100966.03;;;4.18;87.89
32298;BME280;18782;48.984;8.548;2023-01-28T10:54:39;100957.09;;;4.12;88.44
32298;BME280;18782;48.984;8.548;2023-01-28T10:57:10;100964.72;;;4.12;89.43
32298;BME280;18782;48.984;8.548;2023-01-28T10:59:39;100971.47;;;3.98;89.52
32298;BME280;18782;48.984;8.548;2023-01-28T11:02:22;100971.34;;;3.97;90.37
32298;BME280;18782;48.984;8.548;2023-01-28T11:05:00;100969.72;;;3.97;89.33
32298;BME280;18782;48.984;8.548;2023-01-28T11:07:28;100968.31;;;3.89;90.68
32298;BME280;18782;48.984;8.548;2023-01-28T11:09:57;100972.44;;;3.87;89.88
32298;BME280;18782;48.984;8.548;2023-01-28T11:12:27;100969.97;;;3.88;89.50
32298;BME280;18782;48.984;8.548;2023-01-28T11:14:56;100969.56;;;3.82;89.99
32298;BME280;18782;48.984;8.548;2023-01-28T11:17:25;100971.06;;;4.83;100.00
32298;BME280;18782;48.984;8.548;2023-01-28T11:19:57;100975.97;;;5.07;100.00
32298;BME280;18782;48.984;8.548;2023-01-28T11:22:31;100964.63;;;4.75;91.56
32298;BME280;18782;48.984;8.548;2023-01-28T11:25:03;100974.59;;;4.59;89.78
32298;BME280;18782;48.984;8.548;2023-01-28T11:27:32;100970.84;;;4.27;89.36
32298;BME280;18782;48.984;8.548;2023-01-28T11:30:01;100971.91;;;4.17;89.10
32298;BME280;18782;48.984;8.548;2023-01-28T11:32:30;100974.53;;;4.06;88.73
32298;BME280;18782;48.984;8.548;2023-01-28T11:34:58;100972.63;;;3.90;90.03
32298;BME280;18782;48.984;8.548;2023-01-28T11:37:27;100969.75;;;3.85;90.26
32298;BME280;18782;48.984;8.548;2023-01-28T11:40:12;100975.47;;;3.95;88.53
32298;BME280;18782;48.984;8.548;2023-01-28T11:42:47;100972.19;;;3.84;88.78
32298;BME280;18782;48.984;8.548;2023-01-28T11:45:17;100967.81;;;3.81;90.00
32298;BME280;18782;48.984;8.548;2023-01-28T11:47:56;100964.81;;;3.75;91.28
32298;BME280;18782;48.984;8.548;2023-01-28T11:50:35;100969.81;;;3.74;89.42
32298;BME280;18782;48.984;8.548;2023-01-28T11:53:24;100969.59;;;3.71;90.89
32298;BME280;18782;48.984;8.548;2023-01-28T11:56:07;100969.81;;;3.74;91.05
32298;BME280;18782;48.984;8.548;2023-01-28T11:58:45;100974.03;;;3.73;90.47
32298;BME280;18782;48.984;8.548;2023-01-28T12:01:22;100973.06;;;3.71;90.79
32298;BME280;18782;48.984;8.548;2023-01-28T12:04:16;100972.25;;;3.72;88.69
32298;BME280;18782;48.984;8.548;2023-01-28T12:06:59;100977.78;;;3.78;89.35
32298;BME280;18782;48.984;8.548;2023-01-28T12:09:36;100970.13;;;3.78;88.66
32298;BME280;18782;48.984;8.548;2023-01-28T12:12:32;100969.56;;;3.82;88.49
32298;BME280;18782;48.984;8.548;2023-01-28T12:18:12;100968.22;;;3.87;87.31
32298;BME280;18782;48.984;8.548;2023-01-28T12:20:49;100961.44;;;3.88;87.98
32298;BME280;18782;48.984;8.548;2023-01-28T12:23:28;100956.75;;;3.94;87.95
32298;BME280;18782;48.984;8.548;2023-01-28T12:26:05;100960.03;;;4.05;87.25
32298;BME280;18782;48.984;8.548;2023-01-28T12:28:47;100956.31;;;4.13;89.96
32298;BME280;18782;48.984;8.548;2023-01-28T12:31:32;100963.38;;;4.17;87.38
32298;BME280;18782;48.984;8.548;2023-01-28T12:34:26;100957.91;;;4.24;87.35
32298;BME280;18782;48.984;8.548;2023-01-28T12:37:06;100950.66;;;4.30;85.86
32298;BME280;18782;48.984;8.548;2023-01-28T12:39:45;100945.09;;;4.36;84.99
32298;BME280;18782;48.984;8.548;2023-01-28T12:42:19;100941.63;;;4.49;84.65
32298;BME280;18782;48.984;8.548;2023-01-28T12:44:51;100946.94;;;4.52;84.44
32298;BME280;18782;48.984;8.548;2023-01-28T12:47:23;100949.19;;;4.47;83.28
32298;BME280;18782;48.984;8.548;2023-01-28T12:49:56;100950.09;;;4.48;83.32
32298;BME280;18782;48.984;8.548;2023-01-28T12:52:29;100943.00;;;4.43;83.95
32298;BME280;18782;48.984;8.548;2023-01-28T12:55:03;100943.91;;;4.44;83.04
32298;BME280;18782;48.984;8.548;2023-01-28T12:57:32;100945.97;;;4.50;83.35
32298;BME280;18782;48.984;8.548;2023-01-28T13:00:21;100943.22;;;4.47;81.17
32298;BME280;18782;48.984;8.548;2023-01-28T13:02:56;100940.75;;;4.48;79.57
32298;BME280;18782;48.984;8.548;2023-01-28T13:05:32;100939.00;;;4.34;79.89
32298;BME280;18782;48.984;8.548;2023-01-28T13:08:07;100934.00;;;4.35;81.32
32298;BME280;18782;48.984;8.548;2023-01-28T13:10:40;100935.38;;;4.30;79.94
32298;BME280;18782;48.984;8.548;2023-01-28T13:13:14;100935.38;;;4.30;80.52
32298;BME280;18782;48.984;8.548;2023-01-28T13:15:45;100940.69;;;4.33;81.27
32298;BME280;18782;48.984;8.548;2023-01-28T13:18:33;100936.72;;;4.38;81.92
32298;BME280;18782;48.984;8.548;2023-01-28T13:21:14;100945.69;;;4.45;82.30
32298;BME280;18782;48.984;8.548;2023-01-28T13:23:43;100935.16;;;4.54;80.45
32298;BME280;18782;48.984;8.548;2023-01-28T13:26:27;100942.94;;;4.55;79.27
32298;BME280;18782;48.984;8.548;2023-01-28T13:29:07;100947.72;;;4.64;78.23
32298;BME280;18782;48.984;8.548;2023-01-28T13:31:39;100949.09;;;4.59;77.91
32298;BME280;18782;48.984;8.548;2023-01-28T13:34:09;100949.97;;;4.59;77.07
32298;BME280;18782;48.984;8.548;2023-01-28T13:36:43;100945.88;;;4.48;78.63